createdAt,value
2018-07-11T00:01:11.518Z,3.33
2018-07-11T00:03:44.853Z,2.60
2018-07-11T00:06:15.589Z,2.90
2018-07-11T00:08:44.777Z,2.77
2018-07-11T00:11:14.766Z,2.77
2018-07-11T00:13:45.153Z,3.00
2018-07-11T00:16:15.190Z,3.03
2018-07-11T00:18:44.561Z,2.83
2018-07-11T00:21:13.826Z,2.90
2018-07-11T00:23:43.194Z,3.20
2018-07-11T00:26:13.255Z,3.00
2018-07-11T00:28:42.685Z,3.20
2018-07-11T00:31:12.006Z,3.50
2018-07-11T00:33:41.388Z,2.93
2018-07-11T00:36:10.677Z,3.03
2018-07-11T00:38:41.166Z,2.90
2018-07-11T00:41:11.333Z,3.00
2018-07-11T00:43:41.193Z,2.90
2018-07-11T00:46:10.869Z,2.70
2018-07-11T00:48:40.187Z,3.17
2018-07-11T00:51:11.262Z,3.03
2018-07-11T00:53:40.498Z,3.00
2018-07-11T00:56:09.908Z,3.10
2018-07-11T00:58:45.730Z,2.80
2018-07-11T01:01:16.272Z,3.30
2018-07-11T01:03:55.229Z,3.10
2018-07-11T01:06:24.579Z,2.60
2018-07-11T01:08:55.548Z,2.97
2018-07-11T01:11:25.429Z,2.90
2018-07-11T01:13:54.852Z,3.00
2018-07-11T01:16:24.253Z,3.10
2018-07-11T01:18:59.613Z,3.37
2018-07-11T01:21:30.226Z,2.83
2018-07-11T01:23:59.585Z,2.80
2018-07-11T01:26:31.006Z,3.00
2018-07-11T01:29:00.861Z,2.97
2018-07-11T01:31:30.195Z,2.47
2018-07-11T01:34:00.054Z,2.90
2018-07-11T01:36:30.714Z,3.03
2018-07-11T01:39:02.134Z,2.90
2018-07-11T01:41:31.560Z,2.60
2018-07-11T01:44:01.557Z,2.70
2018-07-11T01:46:43.162Z,2.80
2018-07-11T01:49:13.251Z,2.83
2018-07-11T01:51:54.212Z,3.13
2018-07-11T01:54:24.019Z,2.70
2018-07-11T01:56:53.502Z,2.70
2018-07-11T01:59:24.928Z,2.50
2018-07-11T02:01:54.588Z,2.80
2018-07-11T02:04:23.898Z,2.80
2018-07-11T02:06:53.311Z,2.60
2018-07-11T02:09:22.605Z,2.70
2018-07-11T02:11:53.341Z,2.70
2018-07-11T02:14:22.641Z,2.70
2018-07-11T02:16:52.941Z,2.57
2018-07-11T02:19:23.622Z,2.40
2018-07-11T02:21:52.874Z,2.80
2018-07-11T02:24:23.754Z,2.57
2018-07-11T02:26:53.502Z,2.67
2018-07-11T02:29:22.832Z,2.57
2018-07-11T02:31:52.985Z,2.47
2018-07-11T02:34:26.481Z,2.70
2018-07-11T02:36:57.205Z,2.57
2018-07-11T02:39:26.550Z,2.80
2018-07-11T02:41:55.890Z,2.60
2018-07-11T02:44:25.184Z,2.60
2018-07-11T02:46:59.561Z,2.67
2018-07-11T02:49:29.670Z,2.77
2018-07-11T02:51:58.928Z,2.57
2018-07-11T02:54:29.350Z,2.57
2018-07-11T02:56:58.330Z,2.57
2018-07-11T02:59:28.193Z,2.50
2018-07-11T03:01:58.286Z,3.20
2018-07-11T03:04:27.518Z,2.63
2018-07-11T03:06:56.797Z,2.60
2018-07-11T03:09:26.150Z,3.17
2018-07-11T03:11:55.624Z,2.40
2018-07-11T03:14:25.367Z,2.80
2018-07-11T03:16:54.665Z,2.87
2018-07-11T03:19:23.946Z,2.83
2018-07-11T03:21:53.515Z,2.83
2018-07-11T03:24:24.675Z,2.80
2018-07-11T03:26:53.637Z,3.07
2018-07-11T03:29:22.766Z,3.00
2018-07-11T03:31:52.091Z,2.97
2018-07-11T03:34:21.373Z,2.87
2018-07-11T03:36:51.418Z,3.47
2018-07-11T03:39:21.600Z,2.83
2018-07-11T03:41:51.809Z,2.90
2018-07-11T03:44:21.117Z,2.90
2018-07-11T03:46:50.318Z,2.87
2018-07-11T03:49:19.714Z,2.67
2018-07-11T03:51:48.962Z,2.90
2018-07-11T03:54:17.991Z,3.10
2018-07-11T03:56:47.426Z,2.87
2018-07-11T03:59:16.645Z,3.13
2018-07-11T04:01:45.955Z,3.10
2018-07-11T04:04:15.443Z,3.10
2018-07-11T04:06:44.625Z,3.10
2018-07-11T04:09:13.885Z,3.37
2018-07-11T04:11:43.904Z,3.20
2018-07-11T04:14:13.165Z,3.40
2018-07-11T04:16:42.368Z,3.60
2018-07-11T04:19:11.772Z,3.53
2018-07-11T04:21:41.637Z,3.90
2018-07-11T04:24:11.787Z,3.80
2018-07-11T04:26:41.138Z,4.07
2018-07-11T04:29:10.421Z,3.70
2018-07-11T04:31:41.348Z,3.70
2018-07-11T04:34:10.683Z,3.87
2018-07-11T04:36:39.855Z,3.70
2018-07-11T04:39:10.006Z,3.97
2018-07-11T04:41:40.012Z,3.70
2018-07-11T04:44:09.406Z,4.27
2018-07-11T04:46:38.791Z,3.90
2018-07-11T04:49:08.151Z,3.80
2018-07-11T04:51:37.531Z,3.70
2018-07-11T04:54:06.816Z,4.30
2018-07-11T04:56:36.037Z,4.13
2018-07-11T04:59:05.273Z,3.90
2018-07-11T05:01:35.707Z,3.97
2018-07-11T05:04:05.007Z,4.00
2018-07-11T05:06:34.216Z,4.50
2018-07-11T05:09:03.657Z,4.53
2018-07-11T05:11:32.902Z,4.37
2018-07-11T05:14:02.883Z,3.63
2018-07-11T05:16:33.290Z,3.97
2018-07-11T05:37:00.309Z,4.37
2018-07-11T05:39:29.622Z,4.77
2018-07-11T05:41:58.911Z,4.97
2018-07-11T05:44:28.327Z,4.40
2018-07-11T05:47:03.866Z,4.10
2018-07-11T05:49:33.338Z,4.07
2018-07-11T05:52:03.753Z,4.30
2018-07-11T05:54:34.324Z,4.37
2018-07-11T05:57:04.382Z,4.50
2018-07-11T05:59:33.654Z,4.20
2018-07-11T06:02:03.518Z,3.73
2018-07-11T06:04:33.982Z,3.80
2018-07-11T06:07:04.762Z,3.83
2018-07-11T06:09:34.782Z,3.90
2018-07-11T06:12:04.764Z,3.70
2018-07-11T06:14:34.279Z,3.60
2018-07-11T06:17:04.242Z,4.07
2018-07-11T06:19:33.475Z,4.10
2018-07-11T06:22:04.292Z,4.30
2018-07-11T06:24:33.809Z,4.00
2018-07-11T06:27:04.007Z,3.80
2018-07-11T06:29:33.933Z,4.17
2018-07-11T06:32:02.809Z,4.10
2018-07-11T06:34:32.525Z,4.30
2018-07-11T06:37:01.865Z,4.27
2018-07-11T06:39:30.818Z,4.40
2018-07-11T06:41:59.909Z,4.00
2018-07-11T06:44:29.254Z,4.07
2018-07-11T06:47:03.106Z,4.20
2018-07-11T06:49:32.306Z,4.53
2018-07-11T06:52:02.204Z,4.43
2018-07-11T06:54:33.732Z,4.27
2018-07-11T06:57:03.499Z,3.73
2018-07-11T06:59:32.799Z,4.20
2018-07-11T07:02:02.061Z,4.30
2018-07-11T07:04:31.540Z,3.83
2018-07-11T07:07:00.681Z,4.57
2018-07-11T07:09:29.536Z,4.10
2018-07-11T07:11:58.678Z,4.00
2018-07-11T07:14:28.389Z,3.97
2018-07-11T07:16:58.473Z,3.70
2018-07-11T07:19:27.746Z,3.90
2018-07-11T07:21:57.952Z,4.10
2018-07-11T07:24:27.393Z,4.60
2018-07-11T07:26:57.295Z,3.60
2018-07-11T07:29:27.343Z,3.90
2018-07-11T07:50:01.331Z,3.40
2018-07-11T08:10:35.727Z,3.43
2018-07-11T08:13:05.424Z,3.47
2018-07-11T08:15:35.456Z,3.77
2018-07-11T08:36:21.969Z,3.10
2018-07-11T08:41:40.115Z,3.20
2018-07-11T09:03:33.238Z,3.20
2018-07-11T09:24:22.755Z,3.13
2018-07-11T09:44:56.392Z,2.87
2018-07-11T10:05:30.382Z,3.13
2018-07-11T10:07:59.649Z,3.57
2018-07-11T10:10:28.933Z,3.27
2018-07-11T10:12:58.283Z,3.57
2018-07-11T10:15:27.529Z,2.90
2018-07-11T10:17:56.773Z,3.13
2018-07-11T10:20:26.097Z,3.40
2018-07-11T10:22:55.378Z,3.53
2018-07-11T10:25:26.154Z,3.07
2018-07-11T10:28:06.866Z,3.47
2018-07-11T10:48:41.425Z,3.10
2018-07-11T10:51:10.992Z,2.90
2018-07-11T10:53:40.242Z,2.87
2018-07-11T10:56:09.489Z,2.80
2018-07-11T10:58:38.960Z,2.83
2018-07-11T11:01:08.297Z,2.77
2018-07-11T11:03:37.528Z,2.40
2018-07-11T11:06:07.931Z,2.80
2018-07-11T11:08:38.441Z,4.70
2018-07-11T11:11:08.018Z,2.83
2018-07-11T11:13:38.664Z,3.00
2018-07-11T11:16:08.487Z,3.07
2018-07-11T11:18:37.790Z,3.30
2018-07-11T11:21:07.022Z,3.50
2018-07-11T11:23:36.966Z,3.00
2018-07-11T11:26:07.531Z,2.90
2018-07-11T11:28:36.895Z,3.13
2018-07-11T11:31:06.700Z,3.40
2018-07-11T11:33:36.019Z,3.07
2018-07-11T11:36:05.696Z,3.20
2018-07-11T11:38:35.023Z,2.90
2018-07-11T11:41:04.309Z,3.47
2018-07-11T12:01:31.649Z,3.00
2018-07-11T12:04:00.889Z,3.30
2018-07-11T12:06:30.391Z,3.17
2018-07-11T12:08:59.685Z,3.73
2018-07-11T12:11:29.625Z,2.90
2018-07-11T12:13:59.503Z,3.30
2018-07-11T12:16:28.733Z,3.07
2018-07-11T12:18:59.046Z,2.80
2018-07-11T12:21:28.405Z,2.90
2018-07-11T12:23:57.802Z,2.70
2018-07-11T12:26:27.150Z,3.47
2018-07-11T12:28:56.365Z,2.97
2018-07-11T12:31:26.942Z,2.90
2018-07-11T12:33:56.130Z,2.70
2018-07-11T12:36:25.433Z,2.87
2018-07-11T12:38:55.858Z,2.90
2018-07-11T12:41:26.581Z,3.50
2018-07-11T12:43:55.961Z,2.90
2018-07-11T12:46:26.253Z,3.00
2018-07-11T12:49:03.049Z,3.00
2018-07-11T12:51:33.436Z,3.00
2018-07-11T12:54:03.634Z,3.20
2018-07-11T12:56:34.041Z,3.23
2018-07-11T12:59:03.376Z,2.97
2018-07-11T13:01:33.891Z,3.20
2018-07-11T13:04:03.237Z,3.40
2018-07-11T13:06:32.795Z,3.10
2018-07-11T13:09:02.819Z,2.90
2018-07-11T13:11:32.152Z,3.07
2018-07-11T13:14:01.430Z,3.33
2018-07-11T13:16:31.627Z,3.17
2018-07-11T13:19:01.803Z,2.87
2018-07-11T13:21:30.953Z,3.00
2018-07-11T13:24:00.219Z,2.70
2018-07-11T13:26:29.992Z,3.40
2018-07-11T13:28:59.932Z,3.10
2018-07-11T13:31:29.434Z,3.03
2018-07-11T13:33:58.941Z,2.80
2018-07-11T13:36:28.266Z,2.80
2018-07-11T13:38:57.460Z,2.90
2018-07-11T13:41:26.610Z,3.00
2018-07-11T13:43:55.959Z,2.87
2018-07-11T13:46:25.449Z,2.90
2018-07-11T13:48:55.582Z,3.00
2018-07-11T13:51:25.480Z,2.90
2018-07-11T13:53:55.522Z,2.80
2018-07-11T13:56:24.898Z,2.80
2018-07-11T13:58:54.399Z,2.77
2018-07-11T14:01:23.842Z,3.00
2018-07-11T14:03:53.788Z,2.80
2018-07-11T14:06:23.805Z,2.80
2018-07-11T14:08:53.297Z,2.53
2018-07-11T14:11:22.633Z,2.80
2018-07-11T14:13:52.084Z,2.63
2018-07-11T14:16:21.874Z,2.33
2018-07-11T14:18:51.510Z,3.40
2018-07-11T14:21:21.149Z,2.40
2018-07-11T14:23:50.554Z,2.60
2018-07-11T14:26:21.621Z,2.20
2018-07-11T14:46:55.828Z,2.30
2018-07-11T14:49:25.192Z,2.63
2018-07-11T14:51:54.489Z,2.50
2018-07-11T14:54:23.944Z,2.40
2018-07-11T14:56:53.302Z,2.10
2018-07-11T14:59:23.105Z,2.13
2018-07-11T15:01:53.208Z,2.20
2018-07-11T15:04:23.150Z,2.20
2018-07-11T15:06:52.468Z,2.50
2018-07-11T15:27:26.386Z,2.47
2018-07-11T15:29:57.897Z,2.30
2018-07-11T15:32:27.367Z,2.47
2018-07-11T15:34:56.994Z,2.30
2018-07-11T15:55:33.110Z,2.63
2018-07-11T16:16:06.866Z,2.90
2018-07-11T16:18:36.722Z,3.17
2018-07-11T16:21:06.587Z,3.07
2018-07-11T16:41:42.257Z,3.20
2018-07-11T16:44:11.512Z,3.10
2018-07-11T16:46:40.799Z,2.90
2018-07-11T16:49:11.500Z,3.40
2018-07-11T17:09:49.236Z,3.20
2018-07-11T17:12:19.404Z,3.30
2018-07-11T17:14:49.151Z,3.60
2018-07-11T17:17:20.729Z,3.20
2018-07-11T17:20:01.234Z,2.87
2018-07-11T17:22:34.519Z,3.10
2018-07-11T17:25:06.553Z,3.13
2018-07-11T17:27:35.842Z,3.10
2018-07-11T17:30:05.898Z,3.80
2018-07-11T17:32:35.259Z,3.30
2018-07-11T17:35:05.679Z,3.50
2018-07-11T17:37:36.418Z,3.83
2018-07-11T17:40:09.291Z,3.77
2018-07-11T17:42:41.018Z,4.30
2018-07-11T17:45:13.270Z,4.10
2018-07-11T17:49:59.318Z,4.30
2018-07-11T17:52:29.479Z,4.60
2018-07-11T17:55:06.005Z,4.27
2018-07-11T17:57:43.135Z,4.00
2018-07-11T18:00:13.343Z,3.97
2018-07-11T18:02:54.578Z,3.93
2018-07-11T18:05:36.175Z,4.30
2018-07-11T18:08:07.701Z,4.00
2018-07-11T18:10:46.170Z,3.67
2018-07-11T18:13:35.150Z,3.90
2018-07-11T18:16:15.833Z,3.90
2018-07-11T18:18:53.609Z,4.00
2018-07-11T18:21:35.025Z,4.10
2018-07-11T18:24:13.293Z,4.10
2018-07-11T18:26:52.132Z,3.90
2018-07-11T18:29:32.820Z,4.00
2018-07-11T18:33:16.208Z,4.10
2018-07-11T18:35:55.809Z,3.83
2018-07-11T18:38:28.540Z,3.63
2018-07-11T18:41:04.251Z,4.17
2018-07-11T19:01:48.573Z,4.73
2018-07-11T19:04:24.335Z,4.53
2018-07-11T19:08:02.885Z,5.30
2018-07-11T19:11:06.422Z,5.50
2018-07-11T19:13:40.699Z,4.90
2018-07-11T19:16:16.294Z,5.40
2018-07-11T19:18:52.305Z,4.37
2018-07-11T19:21:40.836Z,4.60
2018-07-11T19:24:16.966Z,4.90
2018-07-11T19:26:53.814Z,4.50
2018-07-11T19:30:34.166Z,5.27
2018-07-11T19:51:23.465Z,5.10
2018-07-11T19:55:00.974Z,5.20
2018-07-11T19:57:31.285Z,5.47
2018-07-11T20:00:00.552Z,4.90
2018-07-11T20:02:29.881Z,5.03
2018-07-11T20:04:59.326Z,4.70
2018-07-11T20:07:28.698Z,4.50
2018-07-11T20:09:58.095Z,5.03
2018-07-11T20:30:33.186Z,5.00
2018-07-11T20:33:03.077Z,5.10
2018-07-11T20:53:37.466Z,4.90
2018-07-11T20:56:06.782Z,4.83
2018-07-11T20:58:47.261Z,5.40
2018-07-11T21:19:22.347Z,4.90
2018-07-11T21:21:51.729Z,5.07
2018-07-11T21:24:20.994Z,5.17
2018-07-11T21:26:50.784Z,5.13
2018-07-11T21:47:17.433Z,5.33
2018-07-11T21:49:46.734Z,5.60
2018-07-11T21:52:16.566Z,5.57
2018-07-11T22:12:43.307Z,6.17
2018-07-11T22:15:12.615Z,5.83
2018-07-11T22:17:53.317Z,5.60
2018-07-11T22:20:21.694Z,6.13
2018-07-11T22:40:47.458Z,7.13
2018-07-11T22:43:15.313Z,6.90
2018-07-11T22:45:43.172Z,6.83
2018-07-11T22:48:11.055Z,6.60
2018-07-11T23:08:36.663Z,7.23
2018-07-11T23:11:05.041Z,6.77
2018-07-11T23:13:32.864Z,6.27
2018-07-11T23:16:00.693Z,6.50
2018-07-11T23:18:29.628Z,6.47
2018-07-11T23:20:57.424Z,6.57
2018-07-11T23:23:25.289Z,6.70
2018-07-11T23:43:43.623Z,6.10
2018-07-11T23:46:11.405Z,6.10
2018-07-11T23:48:39.270Z,6.20
2018-07-11T23:51:07.126Z,6.47
2018-07-11T23:53:34.942Z,6.53
2018-07-11T23:56:02.774Z,7.30
